createdAt,value
2023-03-08T00:00:25.887Z,69.82
2023-03-08T00:01:25.933Z,69.20
2023-03-08T00:02:25.864Z,69.51
2023-03-08T00:03:25.966Z,69.40
2023-03-08T00:04:26.051Z,69.61
2023-03-08T00:05:25.864Z,69.09
2023-03-08T00:06:25.824Z,69.30
2023-03-08T00:07:25.835Z,69.51
2023-03-08T00:08:25.884Z,69.30
2023-03-08T00:09:25.822Z,69.82
2023-03-08T00:10:25.797Z,70.23
2023-03-08T00:11:25.799Z,69.71
2023-03-08T00:12:25.750Z,69.30
2023-03-08T00:13:25.765Z,70.13
2023-03-08T00:14:25.733Z,69.54
2023-03-08T00:15:25.752Z,70.06
2023-03-08T00:16:25.834Z,69.96
2023-03-08T00:17:25.698Z,70.17
2023-03-08T00:18:25.717Z,70.27
2023-03-08T00:19:25.691Z,70.27
2023-03-08T00:20:25.675Z,70.97
2023-03-08T00:21:25.676Z,71.10
2023-03-08T00:22:25.698Z,71.10
2023-03-08T00:23:25.626Z,71.20
2023-03-08T00:24:25.691Z,71.00
2023-03-08T00:25:25.614Z,71.31
2023-03-08T00:26:25.608Z,71.31
2023-03-08T00:27:25.586Z,71.31
2023-03-08T00:28:25.573Z,71.20
2023-03-08T00:29:25.673Z,71.20
2023-03-08T00:30:25.570Z,71.00
2023-03-08T00:31:25.729Z,71.83
2023-03-08T00:32:25.568Z,71.72
2023-03-08T00:33:25.523Z,72.24
2023-03-08T00:34:25.523Z,72.14
2023-03-08T00:35:25.634Z,72.45
2023-03-08T00:36:25.540Z,72.45
2023-03-08T00:37:25.487Z,72.76
2023-03-08T00:38:25.494Z,72.45
2023-03-08T00:39:25.456Z,72.66
2023-03-08T00:40:25.444Z,72.66
2023-03-08T00:41:25.559Z,72.76
2023-03-08T00:42:25.423Z,73.00
2023-03-08T00:43:25.428Z,72.97
2023-03-08T00:44:25.430Z,72.97
2023-03-08T00:45:25.385Z,73.63
2023-03-08T00:46:25.431Z,73.83
2023-03-08T00:47:25.439Z,74.15
2023-03-08T00:48:25.380Z,73.73
2023-03-08T00:49:25.364Z,73.83
2023-03-08T00:50:25.341Z,74.04
2023-03-08T00:51:25.351Z,74.39
2023-03-08T00:52:25.308Z,74.49
2023-03-08T00:53:25.402Z,74.46
2023-03-08T00:54:25.302Z,75.22
2023-03-08T00:55:25.289Z,74.29
2023-03-08T00:56:25.265Z,74.60
2023-03-08T00:57:25.258Z,74.91
2023-03-08T00:58:25.248Z,74.49
2023-03-08T00:59:25.300Z,75.01
2023-03-08T01:00:25.236Z,74.91
2023-03-08T01:01:25.233Z,74.49
2023-03-08T01:02:25.197Z,74.70
2023-03-08T01:03:25.213Z,74.29
2023-03-08T01:04:25.202Z,74.29
2023-03-08T01:05:25.745Z,74.29
2023-03-08T01:06:25.175Z,74.49
2023-03-08T01:07:25.175Z,74.32
2023-03-08T01:08:25.137Z,75.15
2023-03-08T01:09:25.140Z,74.80
2023-03-08T01:10:25.127Z,74.84
2023-03-08T01:11:25.130Z,74.95
2023-03-08T01:12:25.112Z,75.05
2023-03-08T01:13:25.079Z,75.36
2023-03-08T01:14:25.075Z,74.74
2023-03-08T01:15:25.057Z,74.95
2023-03-08T01:16:25.076Z,75.46
2023-03-08T01:17:25.063Z,75.88
2023-03-08T01:18:25.036Z,75.74
2023-03-08T01:19:25.047Z,75.46
2023-03-08T01:20:24.995Z,75.95
2023-03-08T01:21:25.003Z,75.78
2023-03-08T01:22:24.978Z,75.57
2023-03-08T01:23:25.000Z,75.98
2023-03-08T01:24:24.948Z,76.30
2023-03-08T01:25:25.020Z,76.61
2023-03-08T01:26:24.931Z,75.71
2023-03-08T01:27:24.975Z,76.86
2023-03-08T01:28:24.927Z,76.96
2023-03-08T01:29:24.911Z,77.72
2023-03-08T01:30:24.894Z,77.31
2023-03-08T01:31:24.944Z,77.62
2023-03-08T01:32:24.888Z,78.03
2023-03-08T01:33:24.849Z,78.14
2023-03-08T01:34:24.851Z,78.24
2023-03-08T01:35:24.849Z,78.45
2023-03-08T01:36:24.818Z,79.08
2023-03-08T01:37:24.831Z,79.28
2023-03-08T01:38:24.817Z,78.97
2023-03-08T01:39:24.842Z,78.87
2023-03-08T01:40:24.793Z,78.87
2023-03-08T01:41:24.756Z,79.08
2023-03-08T01:42:24.743Z,79.39
2023-03-08T01:43:24.736Z,78.77
2023-03-08T01:44:24.784Z,78.87
2023-03-08T01:45:24.761Z,79.18
2023-03-08T01:46:24.723Z,79.39
2023-03-08T01:47:24.689Z,79.18
2023-03-08T01:48:24.691Z,78.03
2023-03-08T01:49:24.696Z,78.20
2023-03-08T01:50:24.686Z,77.79
2023-03-08T01:51:24.660Z,77.37
2023-03-08T01:52:24.667Z,78.10
2023-03-08T01:53:24.620Z,77.37
2023-03-08T01:54:24.606Z,77.58
2023-03-08T01:55:24.624Z,77.27
2023-03-08T01:56:24.697Z,76.86
2023-03-08T01:57:24.600Z,76.96
2023-03-08T01:58:24.562Z,76.96
2023-03-08T01:59:24.555Z,76.96
2023-03-08T02:00:24.558Z,76.61
2023-03-08T02:01:24.584Z,76.43
2023-03-08T02:02:25.505Z,76.65
2023-03-08T02:03:24.551Z,76.09
2023-03-08T02:04:24.494Z,76.33
2023-03-08T02:05:24.502Z,77.06
2023-03-08T02:06:24.472Z,76.61
2023-03-08T02:07:24.497Z,76.65
2023-03-08T02:08:24.473Z,76.33
2023-03-08T02:09:24.480Z,76.65
2023-03-08T02:10:24.498Z,76.43
2023-03-08T02:11:24.443Z,76.86
2023-03-08T02:12:24.406Z,76.96
2023-03-08T02:13:24.412Z,76.65
2023-03-08T02:14:24.409Z,76.33
2023-03-08T02:15:24.405Z,76.54
2023-03-08T02:16:24.364Z,76.54
2023-03-08T02:17:24.372Z,76.65
2023-03-08T02:18:24.342Z,76.43
2023-03-08T02:19:24.347Z,76.75
2023-03-08T02:20:24.360Z,77.31
2023-03-08T02:21:24.346Z,77.27
2023-03-08T02:22:24.308Z,75.95
2023-03-08T02:23:24.312Z,75.85
2023-03-08T02:24:24.315Z,76.57
2023-03-08T02:25:24.302Z,76.89
2023-03-08T02:26:24.252Z,77.10
2023-03-08T02:27:24.376Z,77.31
2023-03-08T02:28:24.229Z,76.47
2023-03-08T02:29:24.277Z,76.99
2023-03-08T02:30:24.234Z,76.68
2023-03-08T02:31:24.232Z,76.89
2023-03-08T02:32:24.338Z,76.78
2023-03-08T02:33:24.211Z,76.99
2023-03-08T02:34:24.191Z,77.31
2023-03-08T02:35:24.211Z,77.13
2023-03-08T02:36:24.165Z,77.34
2023-03-08T02:37:24.176Z,77.45
2023-03-08T02:38:24.128Z,77.66
2023-03-08T02:39:24.110Z,77.90
2023-03-08T02:40:24.118Z,78.07
2023-03-08T02:41:24.104Z,77.90
2023-03-08T02:42:24.102Z,78.31
2023-03-08T02:43:24.128Z,79.15
2023-03-08T02:44:24.058Z,78.94
2023-03-08T02:45:24.043Z,79.25
2023-03-08T02:46:24.039Z,78.94
2023-03-08T02:47:24.057Z,79.05
2023-03-08T02:48:24.345Z,79.05
2023-03-08T02:49:24.037Z,79.25
2023-03-08T02:50:23.983Z,78.31
2023-03-08T02:51:23.980Z,78.42
2023-03-08T02:52:23.977Z,78.52
2023-03-08T02:53:23.970Z,78.73
2023-03-08T02:54:24.005Z,78.94
2023-03-08T02:55:23.933Z,79.15
2023-03-08T02:56:23.918Z,79.08
2023-03-08T02:57:23.916Z,79.15
2023-03-08T02:58:23.936Z,78.97
2023-03-08T02:59:24.168Z,79.19
2023-03-08T03:00:23.930Z,79.50
2023-03-08T03:01:23.895Z,79.19
2023-03-08T03:02:23.853Z,79.29
2023-03-08T03:03:23.919Z,79.60
2023-03-08T03:04:23.888Z,79.71
2023-03-08T03:05:23.845Z,79.74
2023-03-08T03:06:23.849Z,79.60
2023-03-08T03:07:23.811Z,79.85
2023-03-08T03:08:23.797Z,80.02
2023-03-08T03:09:23.806Z,79.53
2023-03-08T03:10:23.785Z,80.16
2023-03-08T03:11:23.790Z,79.95
2023-03-08T03:12:23.773Z,80.62
2023-03-08T03:13:23.740Z,81.24
2023-03-08T03:14:23.711Z,80.72
2023-03-08T03:15:23.723Z,80.51
2023-03-08T03:16:23.717Z,81.45
2023-03-08T03:17:23.719Z,81.59
2023-03-08T03:18:23.669Z,81.49
2023-03-08T03:19:23.661Z,81.70
2023-03-08T03:20:23.784Z,82.22
2023-03-08T03:21:23.639Z,82.12
2023-03-08T03:22:23.650Z,82.64
2023-03-08T03:23:23.666Z,82.46
2023-03-08T03:24:23.602Z,82.78
2023-03-08T03:25:23.589Z,83.30
2023-03-08T03:26:23.579Z,83.09
2023-03-08T03:27:23.616Z,83.09
2023-03-08T03:28:23.582Z,83.62
2023-03-08T03:29:23.608Z,83.55
2023-03-08T03:30:23.527Z,83.76
2023-03-08T03:31:23.586Z,83.86
2023-03-08T03:32:23.553Z,83.97
2023-03-08T03:33:23.513Z,83.86
2023-03-08T03:34:23.485Z,83.65
2023-03-08T03:35:23.479Z,83.76
2023-03-08T03:36:23.479Z,84.07
2023-03-08T03:37:23.458Z,84.07
2023-03-08T03:38:23.488Z,83.80
2023-03-08T03:39:23.458Z,83.80
2023-03-08T03:40:23.428Z,83.86
2023-03-08T03:41:23.413Z,85.16
2023-03-08T03:42:23.412Z,84.95
2023-03-08T03:43:23.414Z,84.42
2023-03-08T03:44:23.417Z,84.42
2023-03-08T03:45:23.388Z,84.39
2023-03-08T03:46:23.481Z,84.39
2023-03-08T03:47:23.364Z,84.22
2023-03-08T03:48:23.338Z,84.53
2023-03-08T03:49:23.371Z,84.84
2023-03-08T03:50:23.332Z,84.32
2023-03-08T03:51:23.330Z,84.84
2023-03-08T03:52:23.291Z,84.84
2023-03-08T03:53:23.289Z,84.63
2023-03-08T03:54:23.312Z,84.59
2023-03-08T03:55:23.282Z,84.70
2023-03-08T03:56:23.266Z,84.70
2023-03-08T03:57:23.275Z,84.80
2023-03-08T03:58:23.228Z,84.91
2023-03-08T03:59:25.638Z,84.91
2023-03-08T04:00:23.218Z,84.39
2023-03-08T04:01:23.226Z,84.28
2023-03-08T04:02:23.224Z,84.39
2023-03-08T04:03:23.361Z,84.17
2023-03-08T04:04:23.175Z,84.17
2023-03-08T04:05:23.177Z,84.17
2023-03-08T04:06:23.152Z,84.34
2023-03-08T04:07:23.199Z,84.17
2023-03-08T04:08:23.139Z,84.39
2023-03-08T04:09:23.152Z,84.39
2023-03-08T04:10:23.106Z,84.39
2023-03-08T04:11:23.096Z,84.28
2023-03-08T04:12:23.103Z,84.28
2023-03-08T04:13:23.125Z,84.70
2023-03-08T04:14:23.076Z,84.49
2023-03-08T04:15:23.084Z,84.39
2023-03-08T04:16:23.152Z,84.28
2023-03-08T04:17:23.031Z,84.28
2023-03-08T04:18:23.017Z,84.17
2023-03-08T04:19:23.063Z,84.70
2023-03-08T04:20:23.026Z,84.17
2023-03-08T04:21:22.978Z,85.05
2023-03-08T04:22:23.007Z,84.49
2023-03-08T04:23:22.955Z,84.63
2023-03-08T04:24:22.948Z,85.33
2023-03-08T04:25:22.985Z,84.95
2023-03-08T04:26:22.917Z,84.53
2023-03-08T04:27:22.905Z,85.16
2023-03-08T04:28:22.897Z,84.84
2023-03-08T04:29:22.892Z,84.95
2023-03-08T04:30:22.901Z,84.95
2023-03-08T04:31:22.950Z,84.95
2023-03-08T04:32:22.863Z,84.63
2023-03-08T04:33:22.839Z,84.95
2023-03-08T04:34:22.836Z,84.91
2023-03-08T04:35:22.920Z,84.91
2023-03-08T04:36:22.854Z,85.36
2023-03-08T04:37:22.870Z,85.53
2023-03-08T04:38:22.784Z,86.16
2023-03-08T04:39:22.770Z,86.27
2023-03-08T04:40:22.782Z,85.64
2023-03-08T04:41:22.768Z,85.96
2023-03-08T04:42:22.753Z,86.16
2023-03-08T04:43:22.780Z,85.85
2023-03-08T04:44:22.715Z,86.16
2023-03-08T04:45:22.727Z,85.85
2023-03-08T04:46:22.775Z,85.85
2023-03-08T04:47:22.693Z,86.06
2023-03-08T04:48:24.769Z,86.06
2023-03-08T04:49:22.720Z,86.16
2023-03-08T04:50:22.646Z,86.06
2023-03-08T04:51:22.672Z,85.50
2023-03-08T04:52:22.625Z,85.81
2023-03-08T04:53:22.649Z,86.13
2023-03-08T04:54:22.628Z,86.23
2023-03-08T04:55:22.662Z,85.60
2023-03-08T04:56:22.619Z,85.08
2023-03-08T04:57:22.602Z,84.56
2023-03-08T04:58:22.570Z,85.14
2023-03-08T04:59:22.576Z,86.08
2023-03-08T05:00:22.568Z,85.04
2023-03-08T05:01:22.597Z,85.25
2023-03-08T05:02:22.575Z,84.83
2023-03-08T05:03:22.528Z,84.10
2023-03-08T05:04:22.503Z,84.94
2023-03-08T05:05:22.501Z,84.62
2023-03-08T05:06:22.494Z,84.73
2023-03-08T05:07:22.579Z,85.04
2023-03-08T05:08:22.483Z,85.04
2023-03-08T05:09:22.465Z,84.94
2023-03-08T05:10:22.446Z,84.79
2023-03-08T05:11:22.437Z,84.83
2023-03-08T05:12:22.398Z,84.94
2023-03-08T05:13:22.407Z,84.10
2023-03-08T05:14:22.402Z,84.52
2023-03-08T05:15:22.403Z,84.17
2023-03-08T05:16:22.533Z,84.17
2023-03-08T05:17:22.386Z,84.27
2023-03-08T05:18:22.392Z,84.17
2023-03-08T05:19:22.402Z,84.79
2023-03-08T05:20:22.319Z,83.33
2023-03-08T05:21:22.313Z,83.64
2023-03-08T05:22:22.313Z,83.44
2023-03-08T05:23:22.299Z,83.75
2023-03-08T05:24:22.274Z,83.85
2023-03-08T05:25:22.300Z,83.40
2023-03-08T05:26:22.256Z,83.81
2023-03-08T05:27:22.253Z,83.71
2023-03-08T05:28:22.249Z,83.61
2023-03-08T05:29:22.222Z,83.61
2023-03-08T05:30:22.197Z,83.40
2023-03-08T05:31:22.283Z,83.61
2023-03-08T05:32:22.251Z,83.61
2023-03-08T05:33:22.183Z,83.78
2023-03-08T05:34:22.199Z,83.61
2023-03-08T05:35:22.757Z,83.61
2023-03-08T05:36:22.150Z,84.30
2023-03-08T05:37:22.124Z,83.57
2023-03-08T05:38:22.175Z,83.25
2023-03-08T05:39:22.151Z,83.25
2023-03-08T05:40:22.093Z,83.36
2023-03-08T05:41:22.070Z,83.25
2023-03-08T05:42:22.063Z,82.90
2023-03-08T05:43:22.050Z,82.94
2023-03-08T05:44:22.074Z,83.01
2023-03-08T05:45:22.089Z,83.11
2023-03-08T05:46:22.211Z,82.90
2023-03-08T05:47:22.003Z,82.90
2023-03-08T05:48:21.996Z,83.01
2023-03-08T05:49:22.000Z,82.42
2023-03-08T05:50:22.011Z,82.70
2023-03-08T05:51:21.961Z,82.90
2023-03-08T05:52:21.966Z,82.24
2023-03-08T05:53:21.937Z,82.48
2023-03-08T05:54:21.930Z,82.55
2023-03-08T05:55:21.942Z,82.97
2023-03-08T05:56:21.950Z,82.34
2023-03-08T05:57:21.926Z,82.45
2023-03-08T05:58:21.878Z,82.65
2023-03-08T05:59:21.875Z,82.65
2023-03-08T06:00:21.857Z,82.97
2023-03-08T06:01:21.863Z,83.07
2023-03-08T06:02:21.907Z,82.87
2023-03-08T06:03:21.877Z,82.82
2023-03-08T06:04:21.811Z,82.55
2023-03-08T06:05:21.819Z,82.55
2023-03-08T06:06:21.794Z,82.87
2023-03-08T06:07:21.804Z,83.07
2023-03-08T06:08:21.802Z,83.59
2023-03-08T06:09:21.781Z,83.07
2023-03-08T06:10:21.750Z,82.55
2023-03-08T06:11:21.760Z,82.34
2023-03-08T06:12:21.732Z,82.55
2023-03-08T06:13:21.727Z,82.55
2023-03-08T06:14:21.696Z,82.55
2023-03-08T06:15:21.761Z,81.93
2023-03-08T06:16:21.731Z,82.14
2023-03-08T06:17:21.665Z,82.34
2023-03-08T06:18:21.667Z,82.65
2023-03-08T06:19:21.681Z,82.20
2023-03-08T06:20:21.632Z,82.65
2023-03-08T06:21:21.633Z,82.87
2023-03-08T06:22:21.610Z,82.72
2023-03-08T06:23:21.600Z,82.72
2023-03-08T06:24:21.618Z,82.51
2023-03-08T06:25:21.604Z,82.72
2023-03-08T06:26:21.558Z,82.62
2023-03-08T06:27:21.595Z,82.82
2023-03-08T06:28:21.550Z,82.82
2023-03-08T06:29:21.557Z,82.82
2023-03-08T06:30:21.536Z,82.41
2023-03-08T06:31:21.504Z,82.62
2023-03-08T06:32:21.539Z,82.31
2023-03-08T06:33:21.494Z,82.51
2023-03-08T06:34:21.480Z,83.00
2023-03-08T06:35:21.587Z,82.79
2023-03-08T06:36:21.479Z,82.68
2023-03-08T06:37:21.447Z,83.00
2023-03-08T06:38:21.433Z,82.48
2023-03-08T06:39:21.430Z,82.68
2023-03-08T06:40:21.448Z,82.79
2023-03-08T06:41:21.473Z,82.79
2023-03-08T06:42:31.343Z,82.75
2023-03-08T06:43:22.408Z,82.23
2023-03-08T06:44:21.387Z,82.54
2023-03-08T06:45:21.356Z,82.13
2023-03-08T06:46:21.437Z,82.34
2023-03-08T06:47:21.370Z,81.81
2023-03-08T06:48:21.322Z,81.71
2023-03-08T06:49:21.328Z,82.13
2023-03-08T06:50:21.301Z,81.81
2023-03-08T06:51:21.294Z,82.03
2023-03-08T06:52:21.299Z,81.88
2023-03-08T06:53:21.316Z,82.30
2023-03-08T06:54:21.271Z,81.57
2023-03-08T06:55:21.244Z,80.84
2023-03-08T06:56:21.249Z,81.05
2023-03-08T06:57:21.237Z,81.98
2023-03-08T06:58:21.240Z,82.34
2023-03-08T06:59:21.312Z,81.88
2023-03-08T07:00:21.201Z,81.36
2023-03-08T07:01:21.304Z,80.94
2023-03-08T07:02:21.184Z,81.26
2023-03-08T07:03:21.186Z,80.94
2023-03-08T07:04:21.210Z,80.94
2023-03-08T07:05:21.177Z,81.26
2023-03-08T07:06:21.119Z,81.01
2023-03-08T07:07:21.167Z,80.49
2023-03-08T07:08:21.136Z,81.01
2023-03-08T07:09:21.104Z,81.12
2023-03-08T07:10:21.096Z,80.60
2023-03-08T07:11:21.069Z,80.80
2023-03-08T07:12:21.057Z,80.91
2023-03-08T07:13:21.057Z,81.12
2023-03-08T07:14:21.047Z,81.12
2023-03-08T07:15:21.068Z,80.29
2023-03-08T07:16:21.039Z,80.56
2023-03-08T07:17:21.010Z,79.94
2023-03-08T07:18:20.996Z,80.25
2023-03-08T07:19:20.982Z,80.35
2023-03-08T07:20:20.969Z,80.66
2023-03-08T07:21:21.001Z,80.35
2023-03-08T07:22:20.935Z,79.52
2023-03-08T07:23:20.923Z,79.83
2023-03-08T07:24:20.912Z,79.80
2023-03-08T07:25:20.910Z,79.62
2023-03-08T07:26:20.956Z,79.62
2023-03-08T07:27:20.998Z,79.80
2023-03-08T07:28:20.874Z,80.11
2023-03-08T07:29:20.854Z,79.58
2023-03-08T07:30:20.855Z,79.80
2023-03-08T07:31:20.956Z,80.00
2023-03-08T07:32:21.026Z,79.90
2023-03-08T07:33:20.867Z,79.69
2023-03-08T07:34:20.799Z,79.27
2023-03-08T07:35:20.788Z,79.17
2023-03-08T07:36:20.898Z,79.27
2023-03-08T07:37:20.797Z,79.76
2023-03-08T07:38:20.786Z,79.76
2023-03-08T07:39:20.778Z,79.65
2023-03-08T07:40:20.799Z,79.86
2023-03-08T07:41:20.777Z,79.10
2023-03-08T07:42:20.791Z,79.30
2023-03-08T07:43:20.753Z,79.20
2023-03-08T07:44:20.723Z,79.83
2023-03-08T07:45:20.819Z,79.61
2023-03-08T07:46:20.731Z,79.83
2023-03-08T07:47:20.833Z,79.38
2023-03-08T07:48:20.652Z,79.30
2023-03-08T07:49:20.657Z,78.86
2023-03-08T07:50:20.702Z,79.41
2023-03-08T07:51:20.712Z,79.17
2023-03-08T07:52:20.629Z,78.89
2023-03-08T07:53:20.621Z,78.86
2023-03-08T07:54:21.734Z,78.68
2023-03-08T07:55:20.591Z,78.65
2023-03-08T07:56:20.562Z,78.65
2023-03-08T07:57:20.570Z,78.75
2023-03-08T07:58:20.575Z,78.89
2023-03-08T07:59:20.541Z,78.75
2023-03-08T08:00:20.539Z,78.86
2023-03-08T08:01:20.546Z,78.75
2023-03-08T08:02:20.492Z,79.17
2023-03-08T08:03:20.538Z,79.38
2023-03-08T08:04:20.558Z,79.06
2023-03-08T08:05:20.553Z,79.38
2023-03-08T08:06:20.471Z,79.34
2023-03-08T08:07:20.436Z,79.03
2023-03-08T08:08:20.604Z,79.13
2023-03-08T08:09:20.413Z,79.13
2023-03-08T08:10:20.427Z,79.75
2023-03-08T08:11:20.414Z,79.03
2023-03-08T08:12:20.400Z,79.13
2023-03-08T08:13:20.459Z,79.75
2023-03-08T08:14:20.356Z,79.55
2023-03-08T08:15:20.375Z,78.82
2023-03-08T08:16:20.451Z,78.61
2023-03-08T08:17:20.366Z,78.68
2023-03-08T08:18:20.325Z,78.58
2023-03-08T08:19:20.320Z,78.78
2023-03-08T08:20:20.307Z,78.78
2023-03-08T08:21:20.300Z,78.78
2023-03-08T08:22:20.293Z,79.10
2023-03-08T08:23:20.307Z,79.47
2023-03-08T08:24:20.280Z,79.68
2023-03-08T08:25:20.277Z,79.47
2023-03-08T08:26:20.221Z,79.99
2023-03-08T08:27:20.216Z,79.68
2023-03-08T08:28:20.231Z,79.74
2023-03-08T08:29:20.208Z,80.30
2023-03-08T08:30:20.242Z,79.95
2023-03-08T08:31:20.195Z,80.26
2023-03-08T08:32:20.212Z,79.74
2023-03-08T08:33:20.152Z,79.64
2023-03-08T08:34:20.181Z,79.44
2023-03-08T08:35:20.141Z,80.05
2023-03-08T08:36:20.182Z,80.22
2023-03-08T08:37:28.813Z,80.54
2023-03-08T08:38:20.092Z,80.22
2023-03-08T08:39:20.095Z,80.74
2023-03-08T08:40:20.061Z,79.60
2023-03-08T08:41:20.059Z,79.40
2023-03-08T08:42:20.041Z,79.19
2023-03-08T08:43:20.031Z,80.22
2023-03-08T08:44:20.051Z,79.30
2023-03-08T08:45:20.011Z,78.88
2023-03-08T08:46:20.020Z,78.57
2023-03-08T08:47:20.036Z,79.09
2023-03-08T08:48:20.012Z,78.36
2023-03-08T08:49:19.959Z,78.88
2023-03-08T08:50:19.957Z,78.88
2023-03-08T08:51:19.960Z,78.74
2023-03-08T08:52:19.952Z,79.40
2023-03-08T08:53:20.001Z,79.60
2023-03-08T08:54:20.000Z,78.67
2023-03-08T08:55:19.893Z,78.57
2023-03-08T08:56:26.725Z,78.26
2023-03-08T08:57:20.901Z,78.47
2023-03-08T08:58:19.873Z,78.47
2023-03-08T08:59:19.855Z,78.57
2023-03-08T09:00:19.836Z,78.26
2023-03-08T09:01:19.831Z,78.36
2023-03-08T09:02:19.897Z,78.16
2023-03-08T09:03:19.811Z,78.67
2023-03-08T09:04:19.940Z,78.47
2023-03-08T09:05:19.933Z,78.26
2023-03-08T09:06:19.781Z,78.88
2023-03-08T09:07:19.813Z,78.26
2023-03-08T09:08:19.766Z,78.57
2023-03-08T09:09:19.740Z,78.36
2023-03-08T09:10:19.766Z,78.47
2023-03-08T09:11:19.738Z,78.47
2023-03-08T09:12:19.700Z,78.36
2023-03-08T09:13:19.727Z,78.57
2023-03-08T09:14:19.692Z,78.43
2023-03-08T09:15:19.681Z,78.16
2023-03-08T09:16:19.760Z,78.64
2023-03-08T09:17:19.661Z,78.64
2023-03-08T09:18:19.633Z,77.53
2023-03-08T09:19:19.739Z,77.50
2023-03-08T09:20:22.101Z,77.39
2023-03-08T09:21:19.606Z,77.81
2023-03-08T09:22:19.649Z,76.98
2023-03-08T09:23:19.637Z,77.19
2023-03-08T09:24:19.587Z,77.19
2023-03-08T09:25:19.590Z,77.19
2023-03-08T09:26:19.555Z,77.19
2023-03-08T09:27:19.538Z,76.98
2023-03-08T09:28:19.553Z,77.09
2023-03-08T09:29:19.534Z,77.19
2023-03-08T09:30:19.522Z,76.64
2023-03-08T09:31:19.559Z,77.15
2023-03-08T09:32:19.512Z,76.95
2023-03-08T09:33:19.484Z,76.53
2023-03-08T09:34:19.546Z,75.50
2023-03-08T09:35:19.580Z,76.43
2023-03-08T09:36:19.439Z,76.74
2023-03-08T09:37:19.442Z,76.32
2023-03-08T09:38:19.417Z,76.22
2023-03-08T09:39:19.454Z,76.32
2023-03-08T09:40:19.412Z,76.84
2023-03-08T09:41:19.440Z,77.05
2023-03-08T09:42:19.384Z,76.43
2023-03-08T09:43:19.369Z,76.74
2023-03-08T09:44:19.348Z,76.60
2023-03-08T09:45:19.342Z,77.12
2023-03-08T09:46:19.415Z,76.91
2023-03-08T09:47:19.341Z,76.70
2023-03-08T09:48:19.384Z,77.12
2023-03-08T09:49:19.308Z,78.46
2023-03-08T09:50:19.302Z,76.81
2023-03-08T09:51:19.294Z,77.22
2023-03-08T09:52:19.274Z,76.81
2023-03-08T09:53:19.288Z,76.91
2023-03-08T09:54:19.243Z,77.15
2023-03-08T09:55:19.273Z,77.33
2023-03-08T09:56:19.210Z,77.53
2023-03-08T09:57:19.242Z,78.77
2023-03-08T09:58:19.843Z,78.88
2023-03-08T09:59:19.193Z,78.46
2023-03-08T10:00:19.176Z,78.46
2023-03-08T10:01:19.167Z,79.49
2023-03-08T10:02:19.197Z,78.56
2023-03-08T10:03:19.131Z,78.25
2023-03-08T10:04:19.198Z,78.56
2023-03-08T10:05:19.152Z,79.08
2023-03-08T10:06:19.094Z,78.77
2023-03-08T10:07:19.083Z,78.15
2023-03-08T10:08:19.080Z,78.77
2023-03-08T10:09:19.070Z,79.08
2023-03-08T10:10:19.300Z,78.98
2023-03-08T10:11:19.085Z,79.80
2023-03-08T10:12:19.170Z,79.39
2023-03-08T10:13:19.015Z,79.91
2023-03-08T10:14:19.013Z,79.08
2023-03-08T10:15:19.022Z,78.98
2023-03-08T10:16:19.054Z,78.77
2023-03-08T10:17:18.988Z,79.08
2023-03-08T10:18:18.955Z,78.77
2023-03-08T10:19:18.951Z,79.39
2023-03-08T10:20:18.976Z,78.67
2023-03-08T10:21:18.944Z,78.98
2023-03-08T10:22:18.962Z,78.56
2023-03-08T10:23:18.901Z,79.08
2023-03-08T10:24:18.888Z,79.29
2023-03-08T10:25:18.880Z,81.01
2023-03-08T10:26:18.884Z,81.11
2023-03-08T10:27:18.904Z,81.01
2023-03-08T10:28:18.883Z,81.42
2023-03-08T10:29:18.838Z,79.97
2023-03-08T10:30:18.929Z,79.97
2023-03-08T10:31:18.844Z,80.90
2023-03-08T10:32:19.012Z,80.80
2023-03-08T10:33:18.804Z,81.87
2023-03-08T10:34:18.840Z,82.70
2023-03-08T10:35:18.778Z,83.53
2023-03-08T10:36:18.781Z,83.63
2023-03-08T10:37:18.766Z,83.53
2023-03-08T10:38:18.738Z,84.87
2023-03-08T10:39:18.733Z,85.28
2023-03-08T10:40:18.852Z,84.87
2023-03-08T10:41:18.751Z,84.15
2023-03-08T10:42:18.693Z,84.97
2023-03-08T10:43:18.707Z,83.84
2023-03-08T10:44:18.683Z,84.56
2023-03-08T10:45:18.680Z,85.80
2023-03-08T10:46:18.743Z,85.60
2023-03-08T10:47:18.657Z,86.67
2023-03-08T10:48:18.640Z,86.83
2023-03-08T10:49:18.673Z,87.08
2023-03-08T10:50:18.709Z,87.70
2023-03-08T10:51:18.602Z,89.36
2023-03-08T10:52:18.590Z,89.15
2023-03-08T10:53:18.570Z,88.22
2023-03-08T10:54:18.583Z,89.04
2023-03-08T10:55:18.577Z,89.87
2023-03-08T10:56:18.602Z,89.92
2023-03-08T10:57:18.524Z,89.98
2023-03-08T10:58:18.634Z,90.95
2023-03-08T10:59:18.660Z,91.16
2023-03-08T11:00:18.676Z,92.50
2023-03-08T11:01:18.491Z,92.50
2023-03-08T11:02:18.486Z,91.53
2023-03-08T11:03:18.471Z,91.67
2023-03-08T11:04:18.581Z,92.50
2023-03-08T11:05:18.469Z,92.19
2023-03-08T11:06:18.575Z,92.30
2023-03-08T11:07:18.511Z,91.99
2023-03-08T11:08:18.433Z,92.13
2023-03-08T11:09:18.473Z,91.67
2023-03-08T11:10:18.560Z,91.67
2023-03-08T11:11:18.421Z,92.03
2023-03-08T11:12:18.401Z,91.88
2023-03-08T11:13:18.367Z,92.09
2023-03-08T11:14:18.415Z,92.50
2023-03-08T11:15:18.470Z,93.43
2023-03-08T11:16:18.384Z,93.33
2023-03-08T11:17:18.319Z,93.54
2023-03-08T11:18:18.307Z,93.54
2023-03-08T11:19:18.394Z,93.74
2023-03-08T11:20:18.268Z,93.43
2023-03-08T11:21:18.292Z,93.12
2023-03-08T11:22:18.256Z,93.33
2023-03-08T11:23:18.235Z,94.47
2023-03-08T11:24:18.321Z,94.26
2023-03-08T11:25:18.219Z,94.26
2023-03-08T11:26:18.199Z,95.09
2023-03-08T11:27:18.212Z,94.68
2023-03-08T11:28:18.191Z,94.89
2023-03-08T11:29:18.197Z,94.68
2023-03-08T11:30:18.245Z,94.94
2023-03-08T11:31:18.310Z,94.94
2023-03-08T11:32:18.287Z,94.73
2023-03-08T11:33:18.442Z,94.22
2023-03-08T11:34:18.128Z,93.80
2023-03-08T11:35:18.113Z,93.60
2023-03-08T11:36:18.099Z,94.32
2023-03-08T11:37:18.093Z,92.87
2023-03-08T11:38:18.126Z,93.29
2023-03-08T11:39:18.082Z,93.66
2023-03-08T11:40:18.102Z,93.04
2023-03-08T11:41:18.073Z,92.72
2023-03-08T11:42:18.018Z,92.42
2023-03-08T11:43:18.035Z,92.11
2023-03-08T11:44:18.008Z,92.21
2023-03-08T11:45:18.012Z,92.11
2023-03-08T11:46:18.089Z,92.42
2023-03-08T11:47:17.985Z,92.27
2023-03-08T11:48:17.986Z,91.44
2023-03-08T11:49:17.942Z,92.00
2023-03-08T11:50:18.374Z,90.83
2023-03-08T11:51:17.973Z,91.96
2023-03-08T11:52:17.941Z,91.20
2023-03-08T11:53:17.930Z,92.07
2023-03-08T11:54:17.905Z,92.27
2023-03-08T11:55:17.917Z,91.86
2023-03-08T11:56:17.877Z,90.72
2023-03-08T11:57:17.907Z,91.71
2023-03-08T11:58:17.877Z,91.82
2023-03-08T11:59:17.829Z,90.58
2023-03-08T12:00:17.862Z,90.89
2023-03-08T12:01:17.840Z,89.65
2023-03-08T12:02:17.809Z,89.75
2023-03-08T12:03:17.870Z,89.23
2023-03-08T12:04:17.874Z,89.34
2023-03-08T12:05:17.826Z,88.92
2023-03-08T12:06:28.318Z,87.54
2023-03-08T12:07:18.982Z,88.57
2023-03-08T12:08:17.838Z,88.06
2023-03-08T12:09:17.874Z,87.74
2023-03-08T12:10:17.795Z,87.95
2023-03-08T12:11:17.691Z,88.26
2023-03-08T12:12:17.774Z,87.50
2023-03-08T12:13:18.364Z,88.57
2023-03-08T12:14:17.676Z,88.89
2023-03-08T12:15:17.709Z,88.64
2023-03-08T12:16:17.710Z,88.74
2023-03-08T12:17:17.770Z,88.84
2023-03-08T12:18:17.686Z,88.95
2023-03-08T12:19:17.656Z,88.80
2023-03-08T12:20:17.618Z,88.70
2023-03-08T12:21:17.611Z,87.66
2023-03-08T12:22:17.568Z,88.56
2023-03-08T12:23:17.561Z,87.56
2023-03-08T12:24:17.626Z,87.73
2023-03-08T12:25:17.575Z,87.38
2023-03-08T12:26:17.653Z,88.31
2023-03-08T12:27:17.507Z,87.27
2023-03-08T12:28:17.684Z,87.79
2023-03-08T12:29:17.558Z,87.75
2023-03-08T12:30:17.490Z,87.34
2023-03-08T12:31:26.954Z,86.10
2023-03-08T12:32:18.702Z,87.13
2023-03-08T12:33:17.638Z,86.27
2023-03-08T12:34:17.432Z,86.41
2023-03-08T12:35:17.450Z,86.27
2023-03-08T12:36:17.626Z,86.37
2023-03-08T12:37:17.528Z,86.37
2023-03-08T12:38:17.430Z,86.68
2023-03-08T12:39:17.418Z,87.05
2023-03-08T12:40:17.448Z,87.57
2023-03-08T12:41:17.414Z,86.43
2023-03-08T12:42:17.369Z,86.60
2023-03-08T12:43:17.367Z,85.78
2023-03-08T12:44:17.322Z,85.36
2023-03-08T12:45:17.327Z,84.95
2023-03-08T12:46:17.407Z,85.22
2023-03-08T12:47:17.333Z,85.16
2023-03-08T12:48:17.335Z,86.46
2023-03-08T12:49:17.369Z,84.50
2023-03-08T12:50:17.322Z,84.61
2023-03-08T12:51:17.329Z,82.65
2023-03-08T12:52:17.270Z,84.16